Terminal Aerodrome Forecast
Issued by NWS North Platte, NE

Home | Current Version | Previous Version | Text Only | Print | Product List | Glossary On
Versions: 1 2 3 4 5 6 7 8 9 10 11 12 13 14 15 16 17 18 19 20 21 22 23 24 25 26 27 28 29 30 31
000
FTUS43 KLBF 011700
TAFVTN
TAF
KVTN 011720Z 0118/0218 28008KT P6SM SKC
     FM012100 34007KT P6SM VCTS BKN080CB
      TEMPO 0121/0124 VRB20G35KT 1 1/2SM +TSRA BKN050CB
     FM020200 32007KT P6SM BKN020
     FM020600 25005KT P6SM SKC
     FM021600 22010KT P6SM SKC=

USA.gov is the U.S. government's official web portal to all federal, state and local government web resources and services.